sensor_id;sensor_type;location;lat;lon;timestamp;P1;durP1;ratioP1;P2;durP2;ratioP2
56399;SDS011;42298;53.638;9.876;2023-07-02T00:00:02;5.85;;;2.75;;
56399;SDS011;42298;53.638;9.876;2023-07-02T00:02:30;6.95;;;2.70;;
56399;SDS011;42298;53.638;9.876;2023-07-02T00:04:56;8.60;;;2.88;;
56399;SDS011;42298;53.638;9.876;2023-07-02T00:07:22;8.05;;;2.67;;
56399;SDS011;42298;53.638;9.876;2023-07-02T00:09:48;11.82;;;3.00;;
56399;SDS011;42298;53.638;9.876;2023-07-02T00:12:13;7.90;;;2.70;;
56399;SDS011;42298;53.638;9.876;2023-07-02T00:14:38;10.40;;;3.30;;
56399;SDS011;42298;53.638;9.876;2023-07-02T00:17:04;8.57;;;2.65;;
56399;SDS011;42298;53.638;9.876;2023-07-02T00:19:30;7.63;;;2.80;;
56399;SDS011;42298;53.638;9.876;2023-07-02T00:21:56;6.95;;;2.83;;
56399;SDS011;42298;53.638;9.876;2023-07-02T00:24:23;8.85;;;3.05;;
56399;SDS011;42298;53.638;9.876;2023-07-02T00:26:48;6.45;;;2.80;;
56399;SDS011;42298;53.638;9.876;2023-07-02T00:29:13;6.38;;;3.10;;
56399;SDS011;42298;53.638;9.876;2023-07-02T00:31:39;9.07;;;2.97;;
56399;SDS011;42298;53.638;9.876;2023-07-02T00:34:04;8.60;;;3.10;;
56399;SDS011;42298;53.638;9.876;2023-07-02T00:36:30;7.43;;;2.97;;
56399;SDS011;42298;53.638;9.876;2023-07-02T00:38:56;6.68;;;2.95;;
56399;SDS011;42298;53.638;9.876;2023-07-02T00:41:22;9.35;;;2.95;;
56399;SDS011;42298;53.638;9.876;2023-07-02T00:43:48;10.15;;;3.20;;
56399;SDS011;42298;53.638;9.876;2023-07-02T00:46:14;9.82;;;3.28;;
56399;SDS011;42298;53.638;9.876;2023-07-02T00:48:45;7.55;;;2.80;;
56399;SDS011;42298;53.638;9.876;2023-07-02T00:51:17;12.52;;;3.42;;
56399;SDS011;42298;53.638;9.876;2023-07-02T00:53:44;8.48;;;3.35;;
56399;SDS011;42298;53.638;9.876;2023-07-02T00:56:11;8.52;;;2.80;;
56399;SDS011;42298;53.638;9.876;2023-07-02T00:58:40;7.40;;;2.88;;
56399;SDS011;42298;53.638;9.876;2023-07-02T01:01:16;8.07;;;3.10;;
56399;SDS011;42298;53.638;9.876;2023-07-02T01:04:02;8.75;;;3.85;;
56399;SDS011;42298;53.638;9.876;2023-07-02T01:06:29;11.13;;;3.40;;
56399;SDS011;42298;53.638;9.876;2023-07-02T01:08:58;9.85;;;3.35;;
56399;SDS011;42298;53.638;9.876;2023-07-02T01:11:26;10.68;;;3.45;;
56399;SDS011;42298;53.638;9.876;2023-07-02T01:13:55;8.23;;;3.20;;
56399;SDS011;42298;53.638;9.876;2023-07-02T01:16:44;8.35;;;3.47;;
56399;SDS011;42298;53.638;9.876;2023-07-02T01:21:59;13.45;;;3.55;;
56399;SDS011;42298;53.638;9.876;2023-07-02T01:24:26;9.95;;;3.50;;
56399;SDS011;42298;53.638;9.876;2023-07-02T01:26:52;8.57;;;3.78;;
56399;SDS011;42298;53.638;9.876;2023-07-02T01:29:19;7.32;;;3.55;;
56399;SDS011;42298;53.638;9.876;2023-07-02T01:31:45;7.80;;;3.20;;
56399;SDS011;42298;53.638;9.876;2023-07-02T01:34:12;9.98;;;3.65;;
56399;SDS011;42298;53.638;9.876;2023-07-02T01:36:38;9.05;;;3.38;;
56399;SDS011;42298;53.638;9.876;2023-07-02T01:39:04;12.23;;;3.95;;
56399;SDS011;42298;53.638;9.876;2023-07-02T01:41:31;9.88;;;3.95;;
56399;SDS011;42298;53.638;9.876;2023-07-02T01:43:58;10.15;;;3.97;;
56399;SDS011;42298;53.638;9.876;2023-07-02T01:46:26;11.32;;;4.30;;
56399;SDS011;42298;53.638;9.876;2023-07-02T01:48:53;11.52;;;4.20;;
56399;SDS011;42298;53.638;9.876;2023-07-02T01:51:18;9.77;;;4.20;;
56399;SDS011;42298;53.638;9.876;2023-07-02T01:53:43;9.18;;;3.95;;
56399;SDS011;42298;53.638;9.876;2023-07-02T01:56:09;13.30;;;4.70;;
56399;SDS011;42298;53.638;9.876;2023-07-02T01:58:34;11.88;;;4.15;;
56399;SDS011;42298;53.638;9.876;2023-07-02T02:00:59;9.52;;;4.13;;
56399;SDS011;42298;53.638;9.876;2023-07-02T02:03:25;10.38;;;4.45;;
56399;SDS011;42298;53.638;9.876;2023-07-02T02:05:50;13.60;;;4.50;;
56399;SDS011;42298;53.638;9.876;2023-07-02T02:08:17;9.50;;;4.30;;
56399;SDS011;42298;53.638;9.876;2023-07-02T02:10:42;9.68;;;4.15;;
56399;SDS011;42298;53.638;9.876;2023-07-02T02:13:08;13.15;;;4.68;;
56399;SDS011;42298;53.638;9.876;2023-07-02T02:15:33;11.68;;;4.40;;
56399;SDS011;42298;53.638;9.876;2023-07-02T02:17:58;11.30;;;4.18;;
56399;SDS011;42298;53.638;9.876;2023-07-02T02:20:24;12.82;;;4.95;;
56399;SDS011;42298;53.638;9.876;2023-07-02T02:22:49;10.75;;;4.38;;
56399;SDS011;42298;53.638;9.876;2023-07-02T02:25:14;9.68;;;4.30;;
56399;SDS011;42298;53.638;9.876;2023-07-02T02:27:40;11.02;;;4.85;;
56399;SDS011;42298;53.638;9.876;2023-07-02T02:30:06;10.63;;;4.28;;
56399;SDS011;42298;53.638;9.876;2023-07-02T02:32:32;9.07;;;3.85;;
56399;SDS011;42298;53.638;9.876;2023-07-02T02:34:57;10.32;;;4.05;;
56399;SDS011;42298;53.638;9.876;2023-07-02T02:37:22;10.70;;;4.20;;
56399;SDS011;42298;53.638;9.876;2023-07-02T02:39:48;11.07;;;5.10;;
56399;SDS011;42298;53.638;9.876;2023-07-02T02:42:15;10.85;;;4.57;;
56399;SDS011;42298;53.638;9.876;2023-07-02T02:44:40;10.00;;;4.68;;
56399;SDS011;42298;53.638;9.876;2023-07-02T02:47:06;10.65;;;4.38;;
56399;SDS011;42298;53.638;9.876;2023-07-02T02:49:31;11.32;;;4.68;;
56399;SDS011;42298;53.638;9.876;2023-07-02T02:51:56;12.52;;;5.57;;
56399;SDS011;42298;53.638;9.876;2023-07-02T02:54:22;9.07;;;4.03;;
56399;SDS011;42298;53.638;9.876;2023-07-02T02:56:47;11.43;;;5.35;;
56399;SDS011;42298;53.638;9.876;2023-07-02T02:59:12;14.18;;;5.22;;
56399;SDS011;42298;53.638;9.876;2023-07-02T03:01:38;8.55;;;4.05;;
56399;SDS011;42298;53.638;9.876;2023-07-02T03:04:03;11.57;;;4.95;;
56399;SDS011;42298;53.638;9.876;2023-07-02T03:06:29;12.35;;;5.05;;
56399;SDS011;42298;53.638;9.876;2023-07-02T03:08:55;11.57;;;4.90;;
56399;SDS011;42298;53.638;9.876;2023-07-02T03:11:20;14.77;;;4.78;;
56399;SDS011;42298;53.638;9.876;2023-07-02T03:13:46;11.20;;;4.72;;
56399;SDS011;42298;53.638;9.876;2023-07-02T03:16:11;9.20;;;4.53;;
56399;SDS011;42298;53.638;9.876;2023-07-02T03:18:36;12.15;;;5.28;;
56399;SDS011;42298;53.638;9.876;2023-07-02T03:21:01;15.02;;;4.85;;
56399;SDS011;42298;53.638;9.876;2023-07-02T03:23:27;9.93;;;4.55;;
56399;SDS011;42298;53.638;9.876;2023-07-02T03:25:52;13.15;;;5.07;;
56399;SDS011;42298;53.638;9.876;2023-07-02T03:28:18;16.02;;;5.28;;
56399;SDS011;42298;53.638;9.876;2023-07-02T03:30:44;10.88;;;4.82;;
56399;SDS011;42298;53.638;9.876;2023-07-02T03:33:09;11.13;;;4.93;;
56399;SDS011;42298;53.638;9.876;2023-07-02T03:35:35;15.80;;;5.38;;
56399;SDS011;42298;53.638;9.876;2023-07-02T03:38:00;13.45;;;5.53;;
56399;SDS011;42298;53.638;9.876;2023-07-02T03:40:26;14.50;;;5.38;;
56399;SDS011;42298;53.638;9.876;2023-07-02T03:42:51;16.13;;;5.97;;
56399;SDS011;42298;53.638;9.876;2023-07-02T03:45:16;16.60;;;5.65;;
56399;SDS011;42298;53.638;9.876;2023-07-02T03:47:42;13.88;;;5.28;;
56399;SDS011;42298;53.638;9.876;2023-07-02T03:50:08;14.95;;;5.35;;
56399;SDS011;42298;53.638;9.876;2023-07-02T03:52:34;17.33;;;5.55;;
56399;SDS011;42298;53.638;9.876;2023-07-02T03:54:59;17.02;;;5.80;;
56399;SDS011;42298;53.638;9.876;2023-07-02T03:57:25;18.48;;;5.57;;
56399;SDS011;42298;53.638;9.876;2023-07-02T03:59:51;14.13;;;5.57;;
56399;SDS011;42298;53.638;9.876;2023-07-02T04:02:16;16.23;;;5.95;;
56399;SDS011;42298;53.638;9.876;2023-07-02T04:04:42;12.90;;;5.47;;
56399;SDS011;42298;53.638;9.876;2023-07-02T04:07:10;13.05;;;6.13;;
56399;SDS011;42298;53.638;9.876;2023-07-02T04:09:36;14.85;;;5.47;;
56399;SDS011;42298;53.638;9.876;2023-07-02T04:12:01;18.10;;;5.80;;
56399;SDS011;42298;53.638;9.876;2023-07-02T04:14:26;18.30;;;6.28;;
56399;SDS011;42298;53.638;9.876;2023-07-02T04:16:52;10.95;;;5.50;;
56399;SDS011;42298;53.638;9.876;2023-07-02T04:19:18;14.25;;;5.47;;
56399;SDS011;42298;53.638;9.876;2023-07-02T04:21:44;14.45;;;5.90;;
56399;SDS011;42298;53.638;9.876;2023-07-02T04:24:09;13.45;;;5.78;;
56399;SDS011;42298;53.638;9.876;2023-07-02T04:26:35;16.05;;;6.07;;
56399;SDS011;42298;53.638;9.876;2023-07-02T04:29:01;18.75;;;6.53;;
56399;SDS011;42298;53.638;9.876;2023-07-02T04:31:27;20.85;;;6.82;;
56399;SDS011;42298;53.638;9.876;2023-07-02T04:33:52;15.32;;;6.35;;
56399;SDS011;42298;53.638;9.876;2023-07-02T04:36:18;14.77;;;5.78;;
56399;SDS011;42298;53.638;9.876;2023-07-02T04:38:43;16.50;;;6.57;;
56399;SDS011;42298;53.638;9.876;2023-07-02T04:41:09;16.25;;;6.00;;
56399;SDS011;42298;53.638;9.876;2023-07-02T04:43:35;18.75;;;6.50;;
56399;SDS011;42298;53.638;9.876;2023-07-02T04:46:00;18.25;;;6.47;;
56399;SDS011;42298;53.638;9.876;2023-07-02T04:48:26;15.70;;;6.53;;
56399;SDS011;42298;53.638;9.876;2023-07-02T04:50:52;16.35;;;6.15;;
56399;SDS011;42298;53.638;9.876;2023-07-02T04:53:19;17.17;;;6.30;;
56399;SDS011;42298;53.638;9.876;2023-07-02T04:55:45;16.58;;;6.13;;
56399;SDS011;42298;53.638;9.876;2023-07-02T04:58:11;14.38;;;6.28;;
56399;SDS011;42298;53.638;9.876;2023-07-02T05:00:37;17.60;;;6.60;;
56399;SDS011;42298;53.638;9.876;2023-07-02T05:03:02;18.15;;;6.57;;
56399;SDS011;42298;53.638;9.876;2023-07-02T05:05:29;14.68;;;6.22;;
56399;SDS011;42298;53.638;9.876;2023-07-02T05:07:58;14.20;;;6.53;;
56399;SDS011;42298;53.638;9.876;2023-07-02T05:10:23;16.25;;;6.57;;
56399;SDS011;42298;53.638;9.876;2023-07-02T05:12:48;16.10;;;6.55;;
56399;SDS011;42298;53.638;9.876;2023-07-02T05:15:13;16.55;;;7.18;;
56399;SDS011;42298;53.638;9.876;2023-07-02T05:17:39;18.83;;;7.13;;
56399;SDS011;42298;53.638;9.876;2023-07-02T05:20:04;16.80;;;6.72;;
56399;SDS011;42298;53.638;9.876;2023-07-02T05:22:35;17.70;;;6.68;;
56399;SDS011;42298;53.638;9.876;2023-07-02T05:25:00;18.27;;;6.95;;
56399;SDS011;42298;53.638;9.876;2023-07-02T05:27:26;19.80;;;7.60;;
56399;SDS011;42298;53.638;9.876;2023-07-02T05:29:51;18.95;;;6.50;;
56399;SDS011;42298;53.638;9.876;2023-07-02T05:32:16;18.02;;;7.45;;
56399;SDS011;42298;53.638;9.876;2023-07-02T05:34:42;20.90;;;8.02;;
56399;SDS011;42298;53.638;9.876;2023-07-02T05:37:08;19.50;;;7.18;;
56399;SDS011;42298;53.638;9.876;2023-07-02T05:39:34;19.35;;;7.13;;
56399;SDS011;42298;53.638;9.876;2023-07-02T05:41:59;18.80;;;7.25;;
56399;SDS011;42298;53.638;9.876;2023-07-02T05:44:25;17.17;;;7.10;;
56399;SDS011;42298;53.638;9.876;2023-07-02T05:46:52;24.05;;;7.93;;
56399;SDS011;42298;53.638;9.876;2023-07-02T05:49:17;22.80;;;8.35;;
56399;SDS011;42298;53.638;9.876;2023-07-02T05:51:43;18.85;;;7.65;;
56399;SDS011;42298;53.638;9.876;2023-07-02T05:54:08;15.50;;;6.80;;
56399;SDS011;42298;53.638;9.876;2023-07-02T05:56:35;23.30;;;7.35;;
56399;SDS011;42298;53.638;9.876;2023-07-02T05:59:00;19.63;;;7.60;;
56399;SDS011;42298;53.638;9.876;2023-07-02T06:01:27;20.50;;;8.05;;
56399;SDS011;42298;53.638;9.876;2023-07-02T06:03:52;21.35;;;7.20;;
56399;SDS011;42298;53.638;9.876;2023-07-02T06:06:18;20.88;;;8.05;;
56399;SDS011;42298;53.638;9.876;2023-07-02T06:08:43;18.33;;;8.07;;
56399;SDS011;42298;53.638;9.876;2023-07-02T06:11:13;21.92;;;7.93;;
56399;SDS011;42298;53.638;9.876;2023-07-02T06:16:25;22.92;;;8.48;;
56399;SDS011;42298;53.638;9.876;2023-07-02T06:18:50;22.45;;;8.10;;
56399;SDS011;42298;53.638;9.876;2023-07-02T06:26:26;23.50;;;9.57;;
56399;SDS011;42298;53.638;9.876;2023-07-02T06:28:53;24.63;;;8.73;;
56399;SDS011;42298;53.638;9.876;2023-07-02T06:31:18;20.20;;;8.02;;
56399;SDS011;42298;53.638;9.876;2023-07-02T06:33:52;24.15;;;7.93;;
56399;SDS011;42298;53.638;9.876;2023-07-02T06:36:18;18.13;;;7.72;;
56399;SDS011;42298;53.638;9.876;2023-07-02T06:38:44;23.02;;;8.55;;
56399;SDS011;42298;53.638;9.876;2023-07-02T06:41:09;22.33;;;8.07;;
56399;SDS011;42298;53.638;9.876;2023-07-02T06:43:35;21.17;;;8.05;;
56399;SDS011;42298;53.638;9.876;2023-07-02T06:46:16;18.85;;;7.90;;
56399;SDS011;42298;53.638;9.876;2023-07-02T06:48:41;18.27;;;7.57;;
56399;SDS011;42298;53.638;9.876;2023-07-02T06:51:06;19.10;;;7.88;;
56399;SDS011;42298;53.638;9.876;2023-07-02T06:53:32;21.20;;;8.43;;
56399;SDS011;42298;53.638;9.876;2023-07-02T06:55:58;19.98;;;7.72;;
56399;SDS011;42298;53.638;9.876;2023-07-02T06:58:38;20.98;;;8.40;;
56399;SDS011;42298;53.638;9.876;2023-07-02T07:01:05;26.83;;;8.40;;
56399;SDS011;42298;53.638;9.876;2023-07-02T07:03:30;22.83;;;8.77;;
56399;SDS011;42298;53.638;9.876;2023-07-02T07:05:56;20.65;;;8.30;;
56399;SDS011;42298;53.638;9.876;2023-07-02T07:08:21;22.60;;;8.98;;
56399;SDS011;42298;53.638;9.876;2023-07-02T07:11:02;22.23;;;9.23;;
56399;SDS011;42298;53.638;9.876;2023-07-02T07:13:27;21.52;;;9.05;;
56399;SDS011;42298;53.638;9.876;2023-07-02T07:15:53;21.45;;;8.85;;
56399;SDS011;42298;53.638;9.876;2023-07-02T07:18:18;22.55;;;9.63;;
56399;SDS011;42298;53.638;9.876;2023-07-02T07:20:43;23.15;;;8.73;;
56399;SDS011;42298;53.638;9.876;2023-07-02T07:23:09;24.85;;;8.52;;
56399;SDS011;42298;53.638;9.876;2023-07-02T07:25:40;18.40;;;8.18;;
56399;SDS011;42298;53.638;9.876;2023-07-02T07:28:06;21.55;;;9.02;;
56399;SDS011;42298;53.638;9.876;2023-07-02T07:30:31;27.05;;;8.85;;
56399;SDS011;42298;53.638;9.876;2023-07-02T07:32:56;22.30;;;9.00;;
56399;SDS011;42298;53.638;9.876;2023-07-02T07:35:22;22.15;;;8.32;;
56399;SDS011;42298;53.638;9.876;2023-07-02T07:37:48;19.33;;;8.57;;
56399;SDS011;42298;53.638;9.876;2023-07-02T07:40:29;23.63;;;8.93;;
56399;SDS011;42298;53.638;9.876;2023-07-02T07:42:54;23.77;;;8.23;;
56399;SDS011;42298;53.638;9.876;2023-07-02T07:45:19;20.83;;;8.60;;
56399;SDS011;42298;53.638;9.876;2023-07-02T07:47:46;17.35;;;7.32;;
56399;SDS011;42298;53.638;9.876;2023-07-02T07:50:11;20.10;;;8.10;;
56399;SDS011;42298;53.638;9.876;2023-07-02T07:52:43;20.98;;;8.40;;
56399;SDS011;42298;53.638;9.876;2023-07-02T07:55:08;18.48;;;8.32;;
56399;SDS011;42298;53.638;9.876;2023-07-02T07:57:34;17.30;;;8.73;;
56399;SDS011;42298;53.638;9.876;2023-07-02T08:00:00;22.55;;;8.38;;
56399;SDS011;42298;53.638;9.876;2023-07-02T08:02:26;18.05;;;7.18;;
56399;SDS011;42298;53.638;9.876;2023-07-02T08:05:07;19.17;;;7.40;;
56399;SDS011;42298;53.638;9.876;2023-07-02T08:07:32;19.42;;;7.40;;
56399;SDS011;42298;53.638;9.876;2023-07-02T08:09:58;19.50;;;7.60;;
56399;SDS011;42298;53.638;9.876;2023-07-02T08:12:24;19.00;;;7.65;;
56399;SDS011;42298;53.638;9.876;2023-07-02T08:14:51;18.77;;;7.60;;
56399;SDS011;42298;53.638;9.876;2023-07-02T08:17:29;18.45;;;8.05;;
56399;SDS011;42298;53.638;9.876;2023-07-02T08:19:56;17.20;;;7.38;;
56399;SDS011;42298;53.638;9.876;2023-07-02T08:22:21;15.60;;;7.03;;
56399;SDS011;42298;53.638;9.876;2023-07-02T08:24:46;15.80;;;7.18;;
56399;SDS011;42298;53.638;9.876;2023-07-02T08:27:14;16.88;;;7.22;;
56399;SDS011;42298;53.638;9.876;2023-07-02T08:29:53;16.05;;;7.90;;
56399;SDS011;42298;53.638;9.876;2023-07-02T08:32:18;16.42;;;6.57;;
56399;SDS011;42298;53.638;9.876;2023-07-02T08:34:43;19.52;;;7.25;;
56399;SDS011;42298;53.638;9.876;2023-07-02T08:37:09;19.50;;;7.10;;
56399;SDS011;42298;53.638;9.876;2023-07-02T08:39:34;17.90;;;7.03;;
56399;SDS011;42298;53.638;9.876;2023-07-02T08:42:17;17.02;;;7.10;;
56399;SDS011;42298;53.638;9.876;2023-07-02T08:44:46;14.55;;;6.97;;
56399;SDS011;42298;53.638;9.876;2023-07-02T08:47:12;17.25;;;6.97;;
56399;SDS011;42298;53.638;9.876;2023-07-02T08:49:38;18.10;;;6.93;;
56399;SDS011;42298;53.638;9.876;2023-07-02T08:52:04;16.23;;;6.10;;
56399;SDS011;42298;53.638;9.876;2023-07-02T08:54:39;18.23;;;5.82;;
56399;SDS011;42298;53.638;9.876;2023-07-02T08:57:05;15.80;;;5.85;;
56399;SDS011;42298;53.638;9.876;2023-07-02T08:59:31;16.55;;;5.75;;
56399;SDS011;42298;53.638;9.876;2023-07-02T09:01:56;14.75;;;5.93;;
56399;SDS011;42298;53.638;9.876;2023-07-02T09:04:23;17.70;;;6.03;;
56399;SDS011;42298;53.638;9.876;2023-07-02T09:09:31;14.15;;;5.65;;
56399;SDS011;42298;53.638;9.876;2023-07-02T09:11:56;15.75;;;5.95;;
56399;SDS011;42298;53.638;9.876;2023-07-02T09:14:31;18.45;;;6.10;;
56399;SDS011;42298;53.638;9.876;2023-07-02T09:17:11;23.08;;;6.15;;
56399;SDS011;42298;53.638;9.876;2023-07-02T09:19:47;16.42;;;5.78;;
56399;SDS011;42298;53.638;9.876;2023-07-02T09:22:14;15.25;;;5.35;;
56399;SDS011;42298;53.638;9.876;2023-07-02T09:24:41;16.77;;;5.18;;
56399;SDS011;42298;53.638;9.876;2023-07-02T09:27:37;16.13;;;5.78;;
56399;SDS011;42298;53.638;9.876;2023-07-02T09:30:07;14.55;;;5.45;;
56399;SDS011;42298;53.638;9.876;2023-07-02T09:32:34;17.40;;;6.10;;
56399;SDS011;42298;53.638;9.876;2023-07-02T09:35:12;14.27;;;5.72;;
56399;SDS011;42298;53.638;9.876;2023-07-02T09:37:38;13.95;;;5.78;;
56399;SDS011;42298;53.638;9.876;2023-07-02T09:40:06;16.73;;;6.60;;
56399;SDS011;42298;53.638;9.876;2023-07-02T09:42:33;18.58;;;6.30;;
56399;SDS011;42298;53.638;9.876;2023-07-02T09:45:00;14.75;;;5.75;;
56399;SDS011;42298;53.638;9.876;2023-07-02T09:47:37;13.38;;;6.03;;
56399;SDS011;42298;53.638;9.876;2023-07-02T09:50:11;17.40;;;6.20;;
56399;SDS011;42298;53.638;9.876;2023-07-02T09:52:39;15.48;;;5.90;;
56399;SDS011;42298;53.638;9.876;2023-07-02T09:55:06;15.98;;;5.60;;
56399;SDS011;42298;53.638;9.876;2023-07-02T09:57:44;16.65;;;5.78;;
56399;SDS011;42298;53.638;9.876;2023-07-02T10:00:10;13.63;;;5.18;;
56399;SDS011;42298;53.638;9.876;2023-07-02T10:02:36;14.32;;;5.03;;
56399;SDS011;42298;53.638;9.876;2023-07-02T10:05:01;14.93;;;4.35;;
56399;SDS011;42298;53.638;9.876;2023-07-02T10:07:30;14.57;;;4.57;;
56399;SDS011;42298;53.638;9.876;2023-07-02T10:10:08;12.73;;;4.10;;
56399;SDS011;42298;53.638;9.876;2023-07-02T10:12:45;17.15;;;5.25;;
56399;SDS011;42298;53.638;9.876;2023-07-02T10:15:11;12.57;;;4.60;;
56399;SDS011;42298;53.638;9.876;2023-07-02T10:17:36;14.15;;;4.90;;
56399;SDS011;42298;53.638;9.876;2023-07-02T10:20:17;13.93;;;4.57;;
56399;SDS011;42298;53.638;9.876;2023-07-02T10:22:43;15.75;;;5.07;;
56399;SDS011;42298;53.638;9.876;2023-07-02T10:25:09;13.18;;;4.22;;
56399;SDS011;42298;53.638;9.876;2023-07-02T10:27:41;19.90;;;4.85;;
56399;SDS011;42298;53.638;9.876;2023-07-02T10:30:08;13.30;;;4.30;;
56399;SDS011;42298;53.638;9.876;2023-07-02T10:32:49;12.63;;;4.68;;
56399;SDS011;42298;53.638;9.876;2023-07-02T10:35:15;13.77;;;4.57;;
56399;SDS011;42298;53.638;9.876;2023-07-02T10:37:42;14.32;;;4.43;;
56399;SDS011;42298;53.638;9.876;2023-07-02T10:40:08;11.65;;;4.43;;
56399;SDS011;42298;53.638;9.876;2023-07-02T10:42:47;10.70;;;4.45;;
56399;SDS011;42298;53.638;9.876;2023-07-02T10:45:17;13.27;;;4.38;;
56399;SDS011;42298;53.638;9.876;2023-07-02T10:47:43;11.27;;;4.03;;
56399;SDS011;42298;53.638;9.876;2023-07-02T10:50:18;11.05;;;3.88;;
56399;SDS011;42298;53.638;9.876;2023-07-02T10:52:57;11.85;;;3.47;;
56399;SDS011;42298;53.638;9.876;2023-07-02T10:55:23;12.35;;;3.85;;
56399;SDS011;42298;53.638;9.876;2023-07-02T10:57:50;10.63;;;3.70;;
56399;SDS011;42298;53.638;9.876;2023-07-02T11:00:16;12.30;;;3.85;;
56399;SDS011;42298;53.638;9.876;2023-07-02T11:02:42;9.73;;;3.55;;
56399;SDS011;42298;53.638;9.876;2023-07-02T11:05:18;14.25;;;4.47;;
56399;SDS011;42298;53.638;9.876;2023-07-02T11:07:43;11.75;;;4.18;;
56399;SDS011;42298;53.638;9.876;2023-07-02T11:10:09;12.32;;;4.05;;
56399;SDS011;42298;53.638;9.876;2023-07-02T11:12:41;13.57;;;3.88;;
56399;SDS011;42298;53.638;9.876;2023-07-02T11:15:07;11.70;;;3.67;;
56399;SDS011;42298;53.638;9.876;2023-07-02T11:17:42;12.85;;;3.97;;
56399;SDS011;42298;53.638;9.876;2023-07-02T11:20:17;13.35;;;3.85;;
56399;SDS011;42298;53.638;9.876;2023-07-02T11:22:42;11.35;;;4.03;;
56399;SDS011;42298;53.638;9.876;2023-07-02T11:25:14;15.95;;;4.80;;
56399;SDS011;42298;53.638;9.876;2023-07-02T11:27:50;15.88;;;4.22;;
56399;SDS011;42298;53.638;9.876;2023-07-02T11:30:27;12.13;;;4.43;;
56399;SDS011;42298;53.638;9.876;2023-07-02T11:32:54;11.13;;;3.38;;
56399;SDS011;42298;53.638;9.876;2023-07-02T11:35:20;13.77;;;3.47;;
56399;SDS011;42298;53.638;9.876;2023-07-02T11:37:58;11.98;;;3.33;;
56399;SDS011;42298;53.638;9.876;2023-07-02T11:40:24;12.85;;;3.72;;
56399;SDS011;42298;53.638;9.876;2023-07-02T11:42:49;14.68;;;3.67;;
56399;SDS011;42298;53.638;9.876;2023-07-02T11:45:14;11.25;;;3.80;;
56399;SDS011;42298;53.638;9.876;2023-07-02T11:47:41;10.73;;;3.15;;
56399;SDS011;42298;53.638;9.876;2023-07-02T11:50:07;10.50;;;3.42;;
56399;SDS011;42298;53.638;9.876;2023-07-02T11:52:48;8.40;;;3.35;;
56399;SDS011;42298;53.638;9.876;2023-07-02T11:55:13;10.30;;;2.83;;
56399;SDS011;42298;53.638;9.876;2023-07-02T11:57:38;12.68;;;3.78;;
56399;SDS011;42298;53.638;9.876;2023-07-02T12:00:04;11.63;;;3.95;;
56399;SDS011;42298;53.638;9.876;2023-07-02T12:02:30;10.90;;;3.55;;
56399;SDS011;42298;53.638;9.876;2023-07-02T12:05:01;13.20;;;3.75;;
56399;SDS011;42298;53.638;9.876;2023-07-02T12:07:27;11.98;;;4.22;;
56399;SDS011;42298;53.638;9.876;2023-07-02T12:09:56;15.00;;;3.95;;
56399;SDS011;42298;53.638;9.876;2023-07-02T12:12:21;12.52;;;3.83;;
56399;SDS011;42298;53.638;9.876;2023-07-02T12:14:46;12.18;;;3.70;;
56399;SDS011;42298;53.638;9.876;2023-07-02T12:17:24;12.88;;;3.65;;
56399;SDS011;42298;53.638;9.876;2023-07-02T12:19:49;12.40;;;3.97;;
56399;SDS011;42298;53.638;9.876;2023-07-02T12:22:15;10.27;;;3.60;;
56399;SDS011;42298;53.638;9.876;2023-07-02T12:24:42;8.25;;;3.30;;
56399;SDS011;42298;53.638;9.876;2023-07-02T12:27:08;9.68;;;3.50;;
56399;SDS011;42298;53.638;9.876;2023-07-02T12:29:49;12.68;;;3.60;;
56399;SDS011;42298;53.638;9.876;2023-07-02T12:32:14;13.10;;;3.20;;
56399;SDS011;42298;53.638;9.876;2023-07-02T12:34:40;9.35;;;3.17;;
56399;SDS011;42298;53.638;9.876;2023-07-02T12:37:05;13.25;;;3.50;;
56399;SDS011;42298;53.638;9.876;2023-07-02T12:39:31;8.35;;;3.10;;
56399;SDS011;42298;53.638;9.876;2023-07-02T12:41:56;12.20;;;3.65;;
56399;SDS011;42298;53.638;9.876;2023-07-02T12:44:37;12.20;;;3.28;;
56399;SDS011;42298;53.638;9.876;2023-07-02T12:47:02;10.98;;;3.15;;
56399;SDS011;42298;53.638;9.876;2023-07-02T12:49:28;9.77;;;2.90;;
56399;SDS011;42298;53.638;9.876;2023-07-02T12:51:57;9.77;;;2.80;;
56399;SDS011;42298;53.638;9.876;2023-07-02T12:54:34;10.85;;;3.47;;
56399;SDS011;42298;53.638;9.876;2023-07-02T12:57:02;11.30;;;3.35;;
56399;SDS011;42298;53.638;9.876;2023-07-02T12:59:28;9.00;;;2.90;;
56399;SDS011;42298;53.638;9.876;2023-07-02T13:01:53;11.93;;;3.42;;
56399;SDS011;42298;53.638;9.876;2023-07-02T13:04:19;9.63;;;3.05;;
56399;SDS011;42298;53.638;9.876;2023-07-02T13:06:59;9.15;;;2.42;;
56399;SDS011;42298;53.638;9.876;2023-07-02T13:09:25;11.98;;;2.67;;
56399;SDS011;42298;53.638;9.876;2023-07-02T13:11:50;8.85;;;2.28;;
56399;SDS011;42298;53.638;9.876;2023-07-02T13:14:15;10.60;;;2.35;;
56399;SDS011;42298;53.638;9.876;2023-07-02T13:16:40;9.93;;;2.47;;
56399;SDS011;42298;53.638;9.876;2023-07-02T13:19:06;6.70;;;2.10;;
56399;SDS011;42298;53.638;9.876;2023-07-02T13:21:31;11.10;;;2.92;;
56399;SDS011;42298;53.638;9.876;2023-07-02T13:23:56;8.07;;;2.50;;
56399;SDS011;42298;53.638;9.876;2023-07-02T13:26:22;7.10;;;2.33;;
56399;SDS011;42298;53.638;9.876;2023-07-02T13:28:47;10.85;;;2.67;;
56399;SDS011;42298;53.638;9.876;2023-07-02T13:31:13;9.10;;;2.63;;
56399;SDS011;42298;53.638;9.876;2023-07-02T13:33:39;7.72;;;2.33;;
56399;SDS011;42298;53.638;9.876;2023-07-02T13:36:05;9.00;;;2.50;;
56399;SDS011;42298;53.638;9.876;2023-07-02T13:38:30;11.95;;;2.60;;
56399;SDS011;42298;53.638;9.876;2023-07-02T13:40:56;7.15;;;1.98;;
56399;SDS011;42298;53.638;9.876;2023-07-02T13:43:23;9.00;;;2.70;;
56399;SDS011;42298;53.638;9.876;2023-07-02T13:45:48;9.65;;;2.47;;
56399;SDS011;42298;53.638;9.876;2023-07-02T13:48:13;8.60;;;2.80;;
56399;SDS011;42298;53.638;9.876;2023-07-02T13:50:39;9.88;;;3.17;;
56399;SDS011;42298;53.638;9.876;2023-07-02T13:53:04;7.70;;;2.63;;
56399;SDS011;42298;53.638;9.876;2023-07-02T13:55:30;7.13;;;2.40;;
56399;SDS011;42298;53.638;9.876;2023-07-02T13:57:55;7.97;;;2.67;;
56399;SDS011;42298;53.638;9.876;2023-07-02T14:00:22;11.48;;;2.83;;
56399;SDS011;42298;53.638;9.876;2023-07-02T14:02:48;7.35;;;2.25;;
56399;SDS011;42298;53.638;9.876;2023-07-02T14:05:13;11.38;;;2.70;;
56399;SDS011;42298;53.638;9.876;2023-07-02T14:07:38;10.55;;;3.15;;
56399;SDS011;42298;53.638;9.876;2023-07-02T14:10:04;10.90;;;3.00;;
56399;SDS011;42298;53.638;9.876;2023-07-02T14:12:29;8.35;;;2.92;;
56399;SDS011;42298;53.638;9.876;2023-07-02T14:14:54;7.20;;;2.33;;
56399;SDS011;42298;53.638;9.876;2023-07-02T14:17:20;10.20;;;2.70;;
56399;SDS011;42298;53.638;9.876;2023-07-02T14:19:45;7.95;;;2.55;;
56399;SDS011;42298;53.638;9.876;2023-07-02T14:22:10;9.10;;;2.72;;
56399;SDS011;42298;53.638;9.876;2023-07-02T14:24:36;8.50;;;2.60;;
56399;SDS011;42298;53.638;9.876;2023-07-02T14:27:01;7.28;;;2.42;;
56399;SDS011;42298;53.638;9.876;2023-07-02T14:29:27;11.30;;;2.92;;
56399;SDS011;42298;53.638;9.876;2023-07-02T14:31:52;10.02;;;2.92;;
56399;SDS011;42298;53.638;9.876;2023-07-02T14:34:18;9.63;;;2.67;;
56399;SDS011;42298;53.638;9.876;2023-07-02T14:36:44;7.35;;;2.40;;
56399;SDS011;42298;53.638;9.876;2023-07-02T14:39:11;7.32;;;2.75;;
56399;SDS011;42298;53.638;9.876;2023-07-02T14:41:37;9.30;;;2.80;;
56399;SDS011;42298;53.638;9.876;2023-07-02T14:44:02;8.43;;;2.47;;
56399;SDS011;42298;53.638;9.876;2023-07-02T14:46:29;10.00;;;2.78;;
56399;SDS011;42298;53.638;9.876;2023-07-02T14:48:58;9.35;;;3.33;;
56399;SDS011;42298;53.638;9.876;2023-07-02T14:51:23;6.53;;;2.58;;